Terminal Aerodrome Forecast
Issued by NWS Charleston, WV

Current Version | Previous Version | Graphics & Text | Print | Product List | Glossary On
Versions: 1 2 3 4 5 6 7 8 9 10 11 12 13 14 15 16 17 18 19 20 21 22 23 24 25 26
885
FTUS41 KRLX 180536
TAFCRW
TAF
KCRW 180536Z 1806/1906 07006KT P6SM -SHRA FEW020 OVC060
     FM181100 07008KT P6SM VCSH OVC045
     FM181600 11007KT P6SM -SHRA VCTS OVC045CB PROB30 1816/1818 2SM
      TSRA OVC040CB
     FM182000 11008KT P6SM OVC060=

USA.gov is the U.S. government's official web portal to all federal, state and local government web resources and services.